Time;durP1;ratioP1;P1;durP2;ratioP2;P2;SDS_P1;SDS_P2;PMS_P1;PMS_P2;Temp;Humidity;BMP_temperature;BMP_pressure;BME280_temperature;BME280_humidity;BME280_pressure;Samples;Min_cycle;Max_cycle;Signal;HPM_P1;HPM_P2
2023/04/20 00:01:47;;;;;;;;;11.50;11.00;;;;;14.02;35.55;101012.38;4789374;29;45675;-61
2023/04/20 00:04:14;;;;;;;;;9.60;9.60;;;;;13.99;35.94;101013.69;4788501;29;46133;-62
2023/04/20 00:06:41;;;;;;;;;8.00;8.00;;;;;14.11;36.18;101016.53;4787679;29;45418;-62
2023/04/20 00:09:07;;;;;;;;;6.00;5.00;;;;;14.08;36.15;101011.47;4788788;29;45454;-62
2023/04/20 00:11:33;;;;;;;;;13.40;13.20;;;;;13.96;36.42;101001.19;4788873;29;45451;-61
2023/04/20 00:13:58;;;;;;;;;14.00;13.00;;;;;13.73;36.34;100973.41;4788823;29;46049;-61
2023/04/20 00:16:24;;;;;;;;;13.50;13.00;;;;;13.74;36.28;100992.50;4789007;29;45451;-61
2023/04/20 00:18:50;;;;;;;;;17.25;12.75;;;;;13.72;36.80;101004.84;4788848;29;45368;-61
2023/04/20 00:21:15;;;;;;;;;13.60;10.80;;;;;13.60;36.94;100993.72;4788657;29;45481;-62
2023/04/20 00:23:41;;;;;;;;;17.25;15.75;;;;;13.57;36.98;101005.19;4788612;29;45635;-62
2023/04/20 00:26:06;;;;;;;;;15.00;13.50;;;;;13.47;36.83;101000.16;4788683;29;45424;-62
2023/04/20 00:28:32;;;;;;;;;13.25;12.25;;;;;13.23;37.23;100961.34;4788121;29;45280;-61
2023/04/20 00:30:58;;;;;;;;;11.00;11.00;;;;;13.52;37.55;100995.69;4788772;29;45400;-61
2023/04/20 00:33:23;;;;;;;;;13.50;12.25;;;;;13.52;37.09;100992.06;4787175;29;46717;-60
2023/04/20 00:35:49;;;;;;;;;14.50;12.75;;;;;13.45;37.04;100991.25;4770626;29;45346;-60
2023/04/20 00:38:14;;;;;;;;;14.75;11.75;;;;;13.55;36.87;100994.38;4770837;29;45221;-60
2023/04/20 00:40:42;;;;;;;;;12.75;11.00;;;;;13.39;37.34;100966.25;4769327;29;45241;-60
2023/04/20 00:43:09;;;;;;;;;11.60;10.40;;;;;13.35;37.19;100970.53;4770440;29;45939;-61
2023/04/20 00:45:35;;;;;;;;;12.80;11.40;;;;;13.36;37.50;100985.16;4770282;29;45398;-61
2023/04/20 00:48:00;;;;;;;;;13.25;12.50;;;;;12.82;37.00;100913.94;4770596;29;45387;-61
2023/04/20 00:50:26;;;;;;;;;7.25;6.75;;;;;12.99;37.57;100950.06;4770283;29;45382;-61
2023/04/20 00:52:51;;;;;;;;;11.00;8.50;;;;;13.11;37.92;100972.22;4768624;29;48168;-61
2023/04/20 00:55:17;;;;;;;;;13.50;13.25;;;;;12.99;37.66;100970.19;4770176;29;45350;-61
2023/04/20 00:57:43;;;;;;;;;13.20;11.20;;;;;12.96;37.99;100964.28;4754244;29;45274;-60
2023/04/20 01:00:09;;;;;;;;;12.50;11.75;;;;;13.08;38.08;100968.00;4754481;29;45593;-60
2023/04/20 01:02:35;;;;;;;;;14.00;12.80;;;;;13.03;37.62;100937.53;4770048;29;45838;-60
2023/04/20 01:05:01;;;;;;;;;13.25;11.25;;;;;13.09;38.33;100958.69;4769979;29;45427;-60
2023/04/20 01:07:28;;;;;;;;;9.75;9.25;;;;;13.12;38.11;100968.38;4770028;29;45383;-60
2023/04/20 01:09:54;;;;;;;;;8.20;7.20;;;;;13.00;38.04;100960.00;4769991;29;45401;-61
2023/04/20 01:12:19;;;;;;;;;14.75;10.75;;;;;12.98;37.91;100957.47;4769803;29;46055;-61
2023/04/20 01:14:44;;;;;;;;;18.25;12.50;;;;;13.06;38.22;100963.75;4768372;29;45414;-61
2023/04/20 01:17:10;;;;;;;;;12.50;12.50;;;;;13.00;38.06;100957.25;4769926;29;45404;-61
2023/04/20 01:19:35;;;;;;;;;18.75;12.75;;;;;13.10;38.27;100962.25;4770338;29;45347;-61
2023/04/20 01:22:01;;;;;;;;;12.50;12.50;;;;;12.90;38.17;100941.22;4769577;29;46068;-60
2023/04/20 01:24:26;;;;;;;;;10.00;9.00;;;;;12.82;38.45;100931.28;4768397;29;45446;-60
2023/04/20 01:26:52;;;;;;;;;7.00;7.00;;;;;13.11;37.93;100959.28;4769773;29;45894;-60
2023/04/20 01:29:17;;;;;;;;;10.50;9.75;;;;;13.13;38.06;100959.06;4737149;29;45761;-60
2023/04/20 01:31:43;;;;;;;;;12.25;11.25;;;;;12.98;38.08;100945.63;4769009;29;46030;-60
2023/04/20 01:34:08;;;;;;;;;10.25;9.50;;;;;12.97;38.58;100944.75;4768063;29;45626;-61
2023/04/20 01:36:34;;;;;;;;;14.00;11.00;;;;;12.91;38.61;100939.31;4769891;29;45183;-61
2023/04/20 01:39:00;;;;;;;;;13.75;10.50;;;;;12.71;38.59;100941.13;4768211;29;45397;-60
2023/04/20 01:41:25;;;;;;;;;10.75;9.25;;;;;12.46;38.49;100927.28;4769217;29;45355;-61
2023/04/20 01:43:51;;;;;;;;;12.50;12.50;;;;;12.48;39.01;100919.66;4768554;29;45326;-62
2023/04/20 01:46:17;;;;;;;;;12.75;10.75;;;;;12.58;39.54;100935.69;4769809;29;45837;-62
2023/04/20 01:48:42;;;;;;;;;9.50;9.50;;;;;12.57;39.14;100937.63;4768389;29;45483;-61
2023/04/20 01:51:08;;;;;;;;;12.00;10.25;;;;;12.59;39.06;100929.09;4769228;29;46846;-61
2023/04/20 01:53:33;;;;;;;;;10.75;9.00;;;;;12.53;39.17;100914.31;4769371;29;45352;-60
2023/04/20 01:55:59;;;;;;;;;12.00;11.00;;;;;12.58;39.10;100927.44;4769321;29;45473;-60
2023/04/20 01:58:25;;;;;;;;;11.00;11.00;;;;;12.59;38.97;100921.72;4769375;29;45405;-65
2023/04/20 02:00:50;;;;;;;;;9.50;8.00;;;;;12.66;39.47;100929.09;4767794;29;45542;-61
2023/04/20 02:03:16;;;;;;;;;12.00;9.25;;;;;12.70;39.34;100927.59;4768101;29;45497;-61
2023/04/20 02:05:41;;;;;;;;;13.00;10.00;;;;;12.59;39.25;100926.34;4769089;29;45422;-61
2023/04/20 02:08:07;;;;;;;;;10.75;9.75;;;;;12.43;39.22;100925.81;4767765;29;45323;-61
2023/04/20 02:10:32;;;;;;;;;12.00;10.00;;;;;12.20;39.74;100907.94;4769121;29;46384;-61
2023/04/20 02:12:58;;;;;;;;;10.75;9.75;;;;;12.40;39.61;100930.91;4768890;29;45403;-61
2023/04/20 02:15:23;;;;;;;;;11.00;9.00;;;;;12.47;39.58;100928.97;4768929;29;45169;-61
2023/04/20 02:17:50;;;;;;;;;9.75;9.75;;;;;12.55;39.13;100930.63;4769258;29;45347;-60
2023/04/20 02:20:18;;;;;;;;;10.00;7.40;;;;;12.36;39.48;100914.00;4768552;29;46962;-60
2023/04/20 02:22:43;;;;;;;;;9.20;7.60;;;;;12.49;39.71;100926.00;4768784;29;45274;-61
2023/04/20 02:25:09;;;;;;;;;10.75;10.75;;;;;12.51;39.19;100937.63;4768822;29;45296;-62
2023/04/20 02:27:35;;;;;;;;;8.00;8.00;;;;;12.12;39.56;100885.34;4768015;29;45555;-61
2023/04/20 02:30:00;;;;;;;;;9.25;7.50;;;;;12.12;39.81;100891.66;4768822;29;47333;-61
2023/04/20 02:32:26;;;;;;;;;9.75;8.25;;;;;12.21;39.81;100917.03;4768631;29;45318;-61
2023/04/20 02:34:51;;;;;;;;;7.50;7.50;;;;;12.29;39.58;100944.31;4769208;29;45293;-61
2023/04/20 02:37:17;;;;;;;;;7.50;7.50;;;;;12.20;40.37;100938.22;4769140;29;45386;-61
2023/04/20 02:39:42;;;;;;;;;10.25;9.25;;;;;12.27;39.98;100937.34;4768614;29;46519;-60
2023/04/20 02:42:07;;;;;;;;;12.00;10.00;;;;;12.19;39.49;100942.03;4768677;29;45292;-61
2023/04/20 02:44:33;;;;;;;;;9.75;8.75;;;;;12.07;39.82;100941.03;4769027;29;45300;-61
2023/04/20 02:46:58;;;;;;;;;10.75;7.25;;;;;11.92;39.99;100936.56;4769178;29;45508;-61
2023/04/20 02:49:24;;;;;;;;;8.25;8.25;;;;;11.93;39.76;100937.44;4768233;29;46204;-61
2023/04/20 02:51:49;;;;;;;;;7.25;6.00;;;;;11.85;40.04;100945.91;4768301;29;45245;-61
2023/04/20 02:54:15;;;;;;;;;4.00;4.00;;;;;11.87;40.31;100941.91;4768925;29;45969;-61
2023/04/20 02:56:41;;;;;;;;;8.75;7.75;;;;;11.97;39.88;100946.94;4752637;29;45917;-61
2023/04/20 02:59:06;;;;;;;;;6.75;6.75;;;;;11.89;40.24;100942.50;4768851;29;46353;-61
2023/04/20 03:01:32;;;;;;;;;3.25;3.00;;;;;11.76;39.92;100917.81;4767105;29;45345;-61
2023/04/20 03:03:57;;;;;;;;;5.50;5.50;;;;;11.94;39.87;100952.88;4769077;29;45392;-60
2023/04/20 03:06:23;;;;;;;;;7.50;5.25;;;;;11.80;40.12;100933.66;4767398;29;45410;-60
2023/04/20 03:08:48;;;;;;;;;8.25;7.50;;;;;11.97;40.17;100946.09;4767318;29;45478;-60
2023/04/20 03:11:14;;;;;;;;;10.00;10.00;;;;;11.92;40.06;100947.56;4768873;29;45461;-60
2023/04/20 03:13:40;;;;;;;;;6.50;6.50;;;;;11.95;39.64;100946.28;4768566;29;45410;-61
2023/04/20 03:16:06;;;;;;;;;8.50;8.00;;;;;11.88;40.36;100949.09;4768640;29;45394;-61
2023/04/20 03:18:31;;;;;;;;;6.25;6.25;;;;;11.95;39.88;100954.56;4768492;29;46072;-61
2023/04/20 03:20:57;;;;;;;;;7.25;4.00;;;;;11.89;40.65;100959.03;4768614;29;45443;-61
2023/04/20 03:23:22;;;;;;;;;4.75;4.75;;;;;11.83;40.43;100954.38;4768521;29;45363;-61
2023/04/20 03:25:48;;;;;;;;;7.25;5.50;;;;;11.71;40.00;100953.34;4767058;29;45230;-61
2023/04/20 03:28:14;;;;;;;;;8.00;7.50;;;;;11.63;40.31;100955.25;4769072;29;47177;-61
2023/04/20 03:30:40;;;;;;;;;8.00;8.00;;;;;11.60;40.53;100947.47;4768150;29;45419;-61
2023/04/20 03:33:05;;;;;;;;;7.50;7.50;;;;;11.66;40.48;100957.59;4768364;29;45216;-60
2023/04/20 03:35:31;;;;;;;;;8.25;6.50;;;;;11.70;40.08;100935.16;4768157;29;45353;-60
2023/04/20 03:37:56;;;;;;;;;5.00;5.00;;;;;11.68;39.83;100924.38;4755437;29;46291;-61
2023/04/20 03:40:22;;;;;;;;;9.25;7.50;;;;;11.66;40.27;100940.25;4763701;29;45247;-62
2023/04/20 03:42:47;;;;;;;;;8.00;5.00;;;;;11.65;39.88;100950.38;4749034;29;45328;-61
2023/04/20 03:45:14;;;;;;;;;4.00;4.00;;;;;11.67;40.16;100925.44;4756105;29;45390;-61
2023/04/20 03:47:40;;;;;;;;;7.80;7.80;;;;;11.68;40.13;100938.13;4767994;29;45436;-61
2023/04/20 03:50:06;;;;;;;;;6.20;6.20;;;;;11.20;40.35;100860.41;4767656;29;45566;-61
2023/04/20 03:52:31;;;;;;;;;6.50;6.50;;;;;11.74;40.22;100951.00;4768063;29;45328;-61
2023/04/20 03:54:57;;;;;;;;;8.00;5.25;;;;;11.69;39.82;100938.97;4757478;29;45547;-60
2023/04/20 03:57:22;;;;;;;;;8.25;8.25;;;;;11.66;40.46;100943.84;4749703;29;45448;-60
2023/04/20 03:59:48;;;;;;;;;9.00;8.00;;;;;11.60;39.84;100935.59;4748419;29;45272;-60
2023/04/20 04:02:14;;;;;;;;;6.00;5.00;;;;;11.63;40.16;100949.75;4749808;29;45330;-61
2023/04/20 04:04:40;;;;;;;;;5.20;5.20;;;;;11.61;40.72;100951.03;4753122;29;45743;-61
2023/04/20 04:07:06;;;;;;;;;8.25;5.50;;;;;11.56;40.21;100950.81;4752548;29;46095;-61
2023/04/20 04:09:31;;;;;;;;;6.60;6.60;;;;;11.49;40.28;100948.09;4719444;29;45912;-61
2023/04/20 04:11:57;;;;;;;;;4.75;4.75;;;;;11.52;40.23;100958.66;4770785;29;45402;-61
2023/04/20 04:14:22;;;;;;;;;4.25;4.25;;;;;11.47;40.55;100961.22;4765574;29;45396;-59
2023/04/20 04:16:48;;;;;;;;;5.25;5.25;;;;;11.12;40.34;100926.56;4752778;29;46513;-61
2023/04/20 04:19:13;;;;;;;;;6.25;5.25;;;;;11.04;40.43;100913.88;4766440;29;45391;-61
2023/04/20 04:21:40;;;;;;;;;7.75;7.00;;;;;11.25;40.68;100969.66;4753222;29;45482;-60
2023/04/20 04:24:06;;;;;;;;;6.20;5.60;;;;;11.25;40.43;100970.50;4751414;29;46051;-60
2023/04/20 04:26:32;;;;;;;;;5.00;5.00;;;;;11.03;40.15;100930.53;4752755;29;45968;-61
2023/04/20 04:28:58;;;;;;;;;5.80;4.80;;;;;10.92;39.79;100921.03;4757033;29;45374;-60
2023/04/20 04:31:24;;;;;;;;;8.00;5.00;;;;;11.25;40.11;100975.16;4770186;29;45301;-60
2023/04/20 04:33:50;;;;;;;;;6.00;4.20;;;;;11.33;40.22;100985.09;4770607;29;45639;-60
2023/04/20 04:36:16;;;;;;;;;8.60;7.60;;;;;11.26;39.50;100965.84;4770548;29;46058;-60
2023/04/20 04:38:43;;;;;;;;;8.20;7.80;;;;;11.24;40.03;100979.81;4770392;29;45335;-60
2023/04/20 04:41:11;;;;;;;;;5.40;5.40;;;;;11.16;40.07;100985.50;4770485;29;45455;-61
2023/04/20 04:43:37;;;;;;;;;6.40;6.40;;;;;10.79;40.25;100925.47;4769535;29;45488;-61
2023/04/20 04:46:10;;;;;;;;;8.00;7.00;;;;;10.79;39.53;100944.69;4768888;29;46809;-61
2023/04/20 04:48:41;;;;;;;;;9.60;6.60;;;;;11.02;39.68;100992.91;4770228;29;45403;-60
2023/04/20 04:51:07;;;;;;;;;7.80;6.00;;;;;10.98;39.73;100988.84;4769016;29;45502;-60
2023/04/20 04:53:32;;;;;;;;;8.80;7.40;;;;;10.85;39.76;100990.53;4770643;29;45207;-61
2023/04/20 04:55:58;;;;;;;;;8.00;7.00;;;;;10.81;39.63;100993.91;4770294;29;45792;-61
2023/04/20 04:58:23;;;;;;;;;4.00;4.00;;;;;10.88;40.29;100994.75;4769797;29;45207;-60
2023/04/20 05:00:49;;;;;;;;;7.75;6.50;;;;;10.75;39.53;100967.28;4769204;29;45371;-61
2023/04/20 05:03:15;;;;;;;;;7.25;7.00;;;;;10.79;39.96;100998.75;4770356;29;45407;-60
2023/04/20 05:05:40;;;;;;;;;7.25;7.25;;;;;10.74;39.76;100996.63;4753837;29;47002;-60
2023/04/20 05:08:07;;;;;;;;;7.75;7.75;;;;;10.93;39.50;101005.09;4756150;29;45339;-60
2023/04/20 05:10:32;;;;;;;;;11.00;5.80;;;;;10.76;39.91;100996.41;4746897;29;45551;-60
2023/04/20 05:12:59;;;;;;;;;7.25;7.25;;;;;10.90;40.40;101009.16;4767970;29;45242;-61
2023/04/20 05:15:24;;;;;;;;;4.80;4.80;;;;;10.86;40.18;100991.38;4766220;29;46726;-62
2023/04/20 05:17:50;;;;;;;;;9.00;9.00;;;;;10.91;39.43;101004.47;4769895;29;45402;-61
2023/04/20 05:20:16;;;;;;;;;11.75;8.00;;;;;10.89;38.79;101012.09;4770089;29;45274;-62
2023/04/20 05:22:41;;;;;;;;;9.25;6.50;;;;;10.81;39.63;101011.22;4768591;29;45335;-62
2023/04/20 05:25:07;;;;;;;;;8.50;7.00;;;;;10.88;39.71;101004.91;4769865;29;45364;-61
2023/04/20 05:27:33;;;;;;;;;8.00;5.00;;;;;10.87;39.40;101004.06;4768374;29;45384;-61
2023/04/20 05:29:58;;;;;;;;;7.75;7.00;;;;;10.79;38.96;100979.53;4769704;29;45424;-60
2023/04/20 05:32:24;;;;;;;;;6.00;6.00;;;;;10.93;38.75;101016.09;4769864;29;45385;-60
2023/04/20 05:34:50;;;;;;;;;7.00;7.00;;;;;10.75;39.44;101005.72;4769485;29;47539;-60
2023/04/20 05:37:15;;;;;;;;;6.00;6.00;;;;;10.76;39.21;101019.25;4769836;29;45392;-61
2023/04/20 05:39:41;;;;;;;;;9.25;8.25;;;;;10.69;39.84;101010.97;4769336;29;45444;-62
2023/04/20 05:42:07;;;;;;;;;8.00;7.00;;;;;10.81;40.05;101024.09;4770175;29;45505;-62
2023/04/20 05:44:32;;;;;;;;;8.75;7.75;;;;;10.79;39.29;101007.81;4769486;29;45906;-62
2023/04/20 05:46:58;;;;;;;;;8.00;8.00;;;;;10.49;39.28;100960.66;4769713;29;45238;-62
2023/04/20 05:49:24;;;;;;;;;11.25;7.50;;;;;10.77;39.57;101011.84;4769512;29;45362;-62
2023/04/20 05:51:50;;;;;;;;;8.50;7.25;;;;;10.71;38.60;101019.00;4769759;29;45651;-60
2023/04/20 05:54:16;;;;;;;;;8.00;7.00;;;;;10.80;39.03;101016.91;4769306;29;45719;-61
2023/04/20 05:56:41;;;;;;;;;9.75;9.75;;;;;10.78;38.73;101013.53;4767753;29;45943;-61
2023/04/20 05:59:06;;;;;;;;;8.25;7.25;;;;;10.77;39.21;101017.34;4768011;29;45287;-60
2023/04/20 06:01:32;;;;;;;;;7.00;7.00;;;;;10.75;39.06;101013.94;4753260;29;45539;-61
2023/04/20 06:03:57;;;;;;;;;9.00;9.00;;;;;10.79;39.26;101023.47;4769099;29;45525;-62
2023/04/20 06:06:23;;;;;;;;;6.00;6.00;;;;;10.73;38.81;101019.63;4769025;29;45304;-62
2023/04/20 06:08:49;;;;;;;;;9.00;8.75;;;;;10.68;38.90;101012.03;4769118;29;45358;-62
2023/04/20 06:11:15;;;;;;;;;4.40;4.40;;;;;10.64;39.49;101015.38;4768379;29;45354;-62
2023/04/20 06:13:41;;;;;;;;;8.25;8.25;;;;;10.60;39.93;101014.09;4768732;29;46535;-61
2023/04/20 06:16:08;;;;;;;;;7.50;7.50;;;;;10.30;39.23;100963.09;4752573;29;45407;-61
2023/04/20 06:18:35;;;;;;;;;7.80;7.00;;;;;10.54;39.27;100980.97;4785867;29;45859;-61
2023/04/20 06:21:00;;;;;;;;;9.00;8.00;;;;;10.67;39.79;100987.53;4787113;29;45381;-64
2023/04/20 06:23:26;;;;;;;;;8.50;6.50;;;;;10.77;38.82;101012.69;4785842;29;45706;-62
2023/04/20 06:25:51;;;;;;;;;9.50;7.25;;;;;10.80;39.37;101019.66;4786312;29;45334;-62
2023/04/20 06:28:17;;;;;;;;;10.25;9.00;;;;;10.76;39.51;101007.38;4787348;29;45485;-62
2023/04/20 06:30:43;;;;;;;;;6.00;6.00;;;;;10.93;38.84;101016.09;4785157;29;45396;-62
2023/04/20 06:33:08;;;;;;;;;10.00;10.00;;;;;10.91;39.19;101019.06;4786896;29;45657;-62
2023/04/20 06:35:34;;;;;;;;;9.75;9.25;;;;;10.94;38.80;101020.56;4779135;29;45368;-61
2023/04/20 06:38:01;;;;;;;;;9.00;9.00;;;;;10.81;38.83;101005.75;4768539;29;45409;-61
2023/04/20 06:40:27;;;;;;;;;10.80;8.40;;;;;10.92;39.43;101018.00;4769082;29;45591;-61
2023/04/20 06:42:53;;;;;;;;;10.80;8.40;;;;;10.89;38.78;101021.16;4768887;29;46664;-61
2023/04/20 06:45:18;;;;;;;;;10.00;8.75;;;;;10.92;38.77;101020.75;4767314;29;45534;-63
2023/04/20 06:47:45;;;;;;;;;9.50;8.50;;;;;10.60;39.39;100949.06;4768995;29;45298;-62
2023/04/20 06:50:10;;;;;;;;;11.00;10.60;;;;;10.94;39.46;101023.31;4767540;29;45488;-60
2023/04/20 06:52:37;;;;;;;;;10.50;10.00;;;;;11.01;39.26;101021.41;4763120;29;45387;-61
2023/04/20 06:55:02;;;;;;;;;10.00;8.80;;;;;11.07;39.17;101025.22;4757120;29;45472;-62
2023/04/20 06:57:28;;;;;;;;;9.00;9.00;;;;;10.93;39.87;101008.72;4765055;29;45263;-61
2023/04/20 06:59:54;;;;;;;;;18.25;11.25;;;;;10.92;39.71;100992.44;4753087;29;45895;-60
2023/04/20 07:02:19;;;;;;;;;9.00;8.75;;;;;11.11;39.44;101013.59;4768245;29;45986;-61
2023/04/20 07:04:45;;;;;;;;;11.75;10.50;;;;;11.18;38.98;101023.75;4768502;29;45456;-61
2023/04/20 07:07:10;;;;;;;;;13.50;12.00;;;;;11.13;38.87;100994.16;4752154;29;45466;-60
2023/04/20 07:09:36;;;;;;;;;9.50;9.50;;;;;11.12;39.66;101022.69;4759258;29;45388;-59
2023/04/20 07:12:01;;;;;;;;;15.50;11.25;;;;;11.19;39.64;101022.69;4763741;29;47451;-58
2023/04/20 07:14:27;;;;;;;;;10.00;9.00;;;;;11.22;39.66;101033.28;4750664;29;45349;-57
2023/04/20 07:16:53;;;;;;;;;9.50;8.25;;;;;11.15;39.76;101037.94;4760992;29;45435;-59
2023/04/20 07:19:18;;;;;;;;;10.60;9.00;;;;;11.09;39.77;101031.34;4731938;29;45632;-58
2023/04/20 07:21:44;;;;;;;;;12.25;10.50;;;;;11.01;39.72;101021.41;4767289;29;46259;-58
2023/04/20 07:24:09;;;;;;;;;10.50;9.00;;;;;10.78;40.58;100981.44;4768195;29;45384;-58
2023/04/20 07:26:35;;;;;;;;;10.50;9.25;;;;;10.90;40.31;101027.50;4767424;29;45301;-57
2023/04/20 07:29:00;;;;;;;;;13.25;11.75;;;;;10.91;40.44;101026.44;4764695;29;45495;-57
2023/04/20 07:31:26;;;;;;;;;13.75;11.00;;;;;10.82;40.66;100999.19;4760019;29;46443;-59
2023/04/20 07:33:51;;;;;;;;;10.75;10.75;;;;;10.90;40.12;101022.88;4768535;29;45369;-59
2023/04/20 07:36:18;;;;;;;;;13.50;10.50;;;;;10.80;40.02;100995.81;4763787;29;45499;-59
2023/04/20 07:38:44;;;;;;;;;13.40;9.60;;;;;11.03;40.41;101022.03;4754719;29;45329;-58
2023/04/20 07:41:09;;;;;;;;;13.75;9.25;;;;;10.93;39.91;101013.34;4770633;29;45434;-60
2023/04/20 07:43:35;;;;;;;;;16.00;13.00;;;;;10.90;40.27;101006.41;4771483;29;45482;-59
2023/04/20 07:46:01;;;;;;;;;12.75;8.75;;;;;11.08;40.35;101014.03;4770504;29;45370;-60
2023/04/20 07:48:26;;;;;;;;;14.00;11.25;;;;;11.14;40.02;101025.25;4763396;29;45500;-59
2023/04/20 07:50:52;;;;;;;;;14.00;13.50;;;;;11.09;39.96;101010.22;4766823;29;45762;-59
2023/04/20 07:53:17;;;;;;;;;13.25;12.75;;;;;10.80;39.88;100964.75;4753479;29;45712;-59
2023/04/20 07:55:43;;;;;;;;;15.00;12.00;;;;;10.82;40.57;100959.88;4766640;29;45306;-61
2023/04/20 07:58:08;;;;;;;;;3.25;2.25;;;;;11.06;40.52;101013.38;4753675;29;45392;-61
2023/04/20 08:00:34;;;;;;;;;14.00;12.25;;;;;11.06;40.05;100999.63;4752860;29;46862;-58
2023/04/20 08:02:59;;;;;;;;;13.25;13.25;;;;;11.16;40.04;101001.16;4751753;29;45491;-61
2023/04/20 08:05:25;;;;;;;;;10.00;10.00;;;;;11.03;40.51;100960.75;4761294;29;45238;-61
2023/04/20 08:07:50;;;;;;;;;15.50;13.75;;;;;11.40;40.33;101007.94;4770150;29;45168;-59
2023/04/20 08:10:16;;;;;;;;;17.25;15.50;;;;;11.51;39.71;101000.94;4770659;29;46010;-59
2023/04/20 08:12:41;;;;;;;;;15.00;15.00;;;;;11.57;40.07;101007.50;4770455;29;45467;-60
2023/04/20 08:15:08;;;;;;;;;13.75;12.25;;;;;11.29;39.45;100972.81;4770878;29;45250;-60
2023/04/20 08:17:33;;;;;;;;;11.60;10.40;;;;;11.60;38.93;100998.84;4771242;29;45606;-61
2023/04/20 08:19:59;;;;;;;;;12.75;11.00;;;;;11.68;38.99;100998.59;4758748;29;46482;-62
2023/04/20 08:22:28;;;;;;;;;10.50;10.50;;;;;11.33;38.47;100928.25;4736512;29;46036;-63
2023/04/20 08:24:57;;;;;;;;;15.80;14.20;;;;;11.69;38.80;100986.53;4750181;29;45483;-61
2023/04/20 08:27:22;;;;;;;;;14.00;13.60;;;;;11.14;39.21;100907.94;4751278;29;46150;-59
2023/04/20 08:29:47;;;;;;;;;15.75;13.75;;;;;11.63;39.04;100973.69;4762634;29;46377;-58
2023/04/20 08:32:14;;;;;;;;;15.25;14.25;;;;;11.56;38.92;100945.31;4765307;29;45654;-58
2023/04/20 08:34:39;;;;;;;;;17.80;14.60;;;;;11.84;39.28;100969.00;4766317;29;45719;-59
2023/04/20 08:37:05;;;;;;;;;12.00;10.50;;;;;11.97;37.97;100974.44;4768026;29;45787;-61
2023/04/20 08:39:30;;;;;;;;;12.50;12.25;;;;;12.04;38.21;100977.19;4773355;29;45952;-62
2023/04/20 08:41:57;;;;;;;;;23.25;17.75;;;;;12.00;38.00;100957.50;4768224;29;45694;-62
2023/04/20 08:44:22;;;;;;;;;15.00;12.60;;;;;12.11;38.48;100974.44;4749811;29;45771;-61
2023/04/20 08:46:48;;;;;;;;;16.00;12.75;;;;;12.16;38.63;100971.88;4751203;29;45403;-64
2023/04/20 08:49:18;;;;;;;;;14.00;11.50;;;;;12.21;38.07;100980.31;4750409;29;45562;-59
2023/04/20 08:51:45;;;;;;;;;15.60;14.20;;;;;12.10;37.25;100972.75;4761483;29;45441;-59
2023/04/20 08:54:11;;;;;;;;;16.40;12.60;;;;;12.16;37.66;100969.13;4744670;29;46190;-58
2023/04/20 08:56:38;;;;;;;;;16.50;16.00;;;;;12.28;37.28;100963.81;4752826;29;45492;-59
2023/04/20 08:59:04;;;;;;;;;12.00;10.80;;;;;12.40;37.08;100964.81;4765350;29;46163;-59
2023/04/20 09:01:30;;;;;;;;;11.20;10.00;;;;;12.35;37.21;100934.34;4758263;29;45942;-59
2023/04/20 09:03:56;;;;;;;;;16.80;13.40;;;;;12.61;36.41;100960.03;4767449;29;45365;-58
2023/04/20 09:06:21;;;;;;;;;5.25;4.25;;;;;12.39;36.11;100904.47;4767400;29;45838;-60
2023/04/20 09:08:47;;;;;;;;;16.75;14.50;;;;;12.47;36.04;100932.59;4767367;29;48767;-61
2023/04/20 09:11:21;;;;;;;;;12.50;12.25;;;;;12.27;36.05;100877.63;4767414;29;45373;-58
2023/04/20 09:14:05;;;;;;;;;14.80;12.00;;;;;12.85;35.96;100947.38;4767558;29;45503;-58
2023/04/20 09:16:31;;;;;;;;;14.40;13.80;;;;;12.95;35.22;100946.91;4779551;29;45689;-58
2023/04/20 09:18:57;;;;;;;;;17.00;14.60;;;;;12.95;35.31;100938.63;4786809;29;45316;-58
2023/04/20 09:21:23;;;;;;;;;11.50;11.50;;;;;12.78;35.15;100910.78;4785056;29;45343;-58
2023/04/20 09:24:15;;;;;;;;;15.60;14.20;;;;;13.04;34.91;100930.94;4785578;29;45360;-58
2023/04/20 09:26:40;;;;;;;;;18.80;15.40;;;;;13.08;34.91;100926.66;4777906;29;45959;-59
2023/04/20 09:29:15;;;;;;;;;15.00;12.25;;;;;12.84;35.01;100898.88;4782025;29;46233;-60
2023/04/20 09:31:41;;;;;;;;;15.00;11.80;;;;;12.94;34.51;100889.25;4744688;29;45723;-61
2023/04/20 09:34:06;;;;;;;;;13.00;11.75;;;;;13.23;34.95;100912.53;4753304;29;45414;-60
2023/04/20 09:36:36;;;;;;;;;14.50;14.00;;;;;13.34;34.73;100915.66;4768195;29;45321;-61
2023/04/20 09:39:04;;;;;;;;;14.40;13.20;;;;;13.32;34.76;100898.47;4763947;29;45727;-59
2023/04/20 09:41:30;;;;;;;;;12.40;7.20;;;;;13.32;33.41;100918.63;4757712;29;45395;-60
2023/04/20 09:43:56;;;;;;;;;13.60;12.00;;;;;13.23;33.59;100926.31;4769220;29;45390;-60
2023/04/20 09:46:22;;;;;;;;;12.25;11.00;;;;;13.23;33.99;100912.53;4753196;29;45614;-63
2023/04/20 09:48:47;;;;;;;;;11.50;10.50;;;;;13.18;34.25;100898.59;4740027;29;46222;-62
2023/04/20 09:51:13;;;;;;;;;10.50;10.25;;;;;13.35;34.18;100909.88;4743821;29;45555;-59
2023/04/20 09:53:38;;;;;;;;;13.50;13.50;;;;;13.10;34.08;100846.53;4757110;29;45728;-60
2023/04/20 09:56:04;;;;;;;;;12.75;11.00;;;;;13.37;34.19;100888.47;4767139;29;45386;-61
2023/04/20 09:58:30;;;;;;;;;14.40;11.40;;;;;13.40;34.04;100888.00;4764726;29;45505;-59
2023/04/20 10:00:55;;;;;;;;;15.25;12.50;;;;;13.28;34.63;100865.00;4764894;29;45989;-58
2023/04/20 10:03:21;;;;;;;;;5.50;5.50;;;;;13.56;34.59;100880.25;4765791;29;45513;-61
2023/04/20 10:05:46;;;;;;;;;11.75;9.00;;;;;13.53;34.22;100858.63;4767522;29;45796;-61
2023/04/20 10:08:12;;;;;;;;;13.50;12.00;;;;;13.69;35.17;100891.16;4766228;29;45495;-62
2023/04/20 10:10:45;;;;;;;;;10.00;9.25;;;;;13.69;34.83;100882.88;4764512;29;45518;-61
2023/04/20 10:13:11;;;;;;;;;11.60;10.00;;;;;13.73;35.53;100868.59;4764991;29;45459;-61
2023/04/20 10:15:38;;;;;;;;;11.25;10.25;;;;;13.78;34.93;100877.03;4767719;29;45551;-60
2023/04/20 10:18:23;;;;;;;;;11.80;11.80;;;;;13.73;36.02;100890.66;4766524;29;46021;-61
2023/04/20 10:20:49;;;;;;;;;13.40;12.20;;;;;13.74;35.97;100879.41;4751488;29;45426;-60
2023/04/20 10:23:15;;;;;;;;;14.50;14.50;;;;;13.86;35.27;100868.44;4766650;29;45416;-63
2023/04/20 10:25:41;;;;;;;;;12.00;12.00;;;;;13.95;35.85;100855.19;4769879;29;45585;-60
2023/04/20 10:28:09;;;;;;;;;14.40;13.00;;;;;13.92;36.25;100874.94;4767792;29;47440;-61
2023/04/20 10:30:35;;;;;;;;;16.80;13.40;;;;;13.85;35.12;100872.28;4766371;29;45919;-61
2023/04/20 10:33:10;;;;;;;;;10.80;10.80;;;;;13.76;35.65;100874.50;4768083;29;45516;-61
2023/04/20 10:35:53;;;;;;;;;12.20;11.20;;;;;13.76;35.99;100865.41;4766376;29;45413;-60
2023/04/20 10:38:34;;;;;;;;;17.40;14.80;;;;;13.67;36.20;100867.63;4764531;29;46432;-60
2023/04/20 10:41:10;;;;;;;;;13.80;11.60;;;;;13.36;35.73;100828.03;4767810;29;45354;-60
2023/04/20 10:43:40;;;;;;;;;13.40;11.60;;;;;13.23;36.33;100815.25;4777778;29;45771;-60
2023/04/20 10:46:13;;;;;;;;;9.20;8.80;;;;;13.30;36.73;100813.28;4775483;29;45466;-61
2023/04/20 10:48:48;;;;;;;;;7.00;7.00;;;;;13.57;36.80;100853.50;4758233;29;46196;-61
2023/04/20 10:51:15;;;;;;;;;17.60;16.40;;;;;13.57;36.59;100857.13;4765634;29;45589;-62
2023/04/20 10:53:40;;;;;;;;;6.00;5.20;;;;;13.47;37.02;100859.56;4758117;29;45558;-56
2023/04/20 10:56:06;;;;;;;;;17.00;14.50;;;;;13.16;36.89;100815.31;4777000;29;45680;-61
2023/04/20 10:58:32;;;;;;;;;13.40;12.80;;;;;13.33;37.55;100848.63;4766880;29;46312;-61
2023/04/20 11:01:01;;;;;;;;;15.75;13.25;;;;;13.43;37.58;100856.38;4766214;29;45418;-59
2023/04/20 11:03:27;;;;;;;;;15.00;15.00;;;;;13.35;36.99;100843.72;4765132;29;45503;-60
2023/04/20 11:05:53;;;;;;;;;13.00;13.00;;;;;13.34;37.24;100841.22;4766488;29;45327;-61
2023/04/20 11:08:19;;;;;;;;;14.50;13.75;;;;;13.27;38.03;100821.97;4763013;29;46977;-61
2023/04/20 11:10:44;;;;;;;;;14.25;14.25;;;;;13.39;37.65;100853.22;4766493;29;45325;-61
2023/04/20 11:13:22;;;;;;;;;15.00;13.50;;;;;13.28;38.74;100845.72;4769822;29;45551;-60